createdAt,value
2022-08-07T00:00:25.821Z,15.90
2022-08-07T00:02:53.795Z,15.90
2022-08-07T00:05:23.737Z,15.90
2022-08-07T00:07:59.865Z,15.80
2022-08-07T00:10:31.108Z,15.80
2022-08-07T00:13:03.234Z,15.90
2022-08-07T00:15:46.623Z,15.80
2022-08-07T00:18:25.308Z,15.90
2022-08-07T00:21:07.922Z,15.80
2022-08-07T00:23:39.547Z,15.60
2022-08-07T00:26:18.766Z,15.70
2022-08-07T00:28:57.854Z,15.60
2022-08-07T00:31:37.524Z,15.60
2022-08-07T00:34:08.925Z,15.50
2022-08-07T00:36:38.553Z,15.60
2022-08-07T00:39:12.878Z,15.50
2022-08-07T00:42:01.948Z,15.50
2022-08-07T00:44:33.698Z,15.30
2022-08-07T00:47:06.470Z,15.30
2022-08-07T00:50:19.249Z,15.30
2022-08-07T00:52:33.297Z,15.20
2022-08-07T00:55:10.686Z,15.20
2022-08-07T00:57:38.356Z,14.90
2022-08-07T01:00:23.162Z,14.80
2022-08-07T01:02:51.479Z,14.40
2022-08-07T01:05:20.098Z,14.50
2022-08-07T01:07:51.940Z,14.60
2022-08-07T01:10:19.955Z,14.50
2022-08-07T01:12:54.168Z,14.40
2022-08-07T01:15:35.798Z,14.30
2022-08-07T01:18:11.371Z,14.20
2022-08-07T01:20:57.241Z,14.30
2022-08-07T01:23:36.868Z,14.20
2022-08-07T01:26:07.910Z,14.20
2022-08-07T01:28:51.399Z,14.10
2022-08-07T01:31:21.889Z,14.00
2022-08-07T01:33:55.835Z,14.10
2022-08-07T01:36:33.485Z,14.10
2022-08-07T01:39:04.151Z,14.00
2022-08-07T01:41:40.916Z,13.80
2022-08-07T01:44:27.290Z,13.80
2022-08-07T01:46:54.915Z,13.70
2022-08-07T01:49:22.142Z,13.60
2022-08-07T01:52:03.833Z,13.70
2022-08-07T01:54:37.711Z,13.60
2022-08-07T01:57:24.264Z,13.60
2022-08-07T02:00:13.077Z,13.60
2022-08-07T02:03:18.102Z,13.50
2022-08-07T02:05:48.572Z,13.30
2022-08-07T02:08:27.942Z,13.50
2022-08-07T02:10:59.492Z,13.50
2022-08-07T02:13:56.268Z,13.50
2022-08-07T02:16:28.799Z,13.40
2022-08-07T02:19:05.651Z,13.30
2022-08-07T02:21:55.583Z,13.30
2022-08-07T02:24:25.250Z,13.20
2022-08-07T02:27:02.909Z,13.30
2022-08-07T02:29:34.287Z,13.10
2022-08-07T02:32:05.483Z,13.10
2022-08-07T02:34:34.077Z,13.10
2022-08-07T02:37:04.123Z,13.20
2022-08-07T02:39:43.616Z,13.10
2022-08-07T02:42:27.051Z,13.10
2022-08-07T02:44:55.927Z,13.00
2022-08-07T02:47:26.049Z,12.90
2022-08-07T02:49:58.932Z,12.80
2022-08-07T02:52:37.626Z,12.50
2022-08-07T02:55:28.608Z,12.80
2022-08-07T02:58:13.515Z,12.80
2022-08-07T03:00:47.001Z,12.90
2022-08-07T03:03:21.035Z,12.70
2022-08-07T03:05:53.562Z,12.70
2022-08-07T03:08:27.033Z,12.70
2022-08-07T03:10:57.959Z,12.70
2022-08-07T03:13:25.534Z,12.70
2022-08-07T03:15:56.299Z,12.70
2022-08-07T03:18:34.179Z,12.70
2022-08-07T03:21:08.935Z,12.60
2022-08-07T03:24:18.028Z,12.50
2022-08-07T03:26:33.994Z,12.60
2022-08-07T03:29:11.243Z,12.50
2022-08-07T03:31:46.251Z,12.30
2022-08-07T03:34:18.719Z,12.50
2022-08-07T03:36:53.290Z,12.30
2022-08-07T03:39:59.298Z,12.20
2022-08-07T03:42:12.264Z,12.20
2022-08-07T03:44:40.222Z,12.30
2022-08-07T03:47:13.949Z,12.30
2022-08-07T03:49:51.913Z,12.10
2022-08-07T03:52:26.563Z,11.90
2022-08-07T03:55:06.858Z,12.10
2022-08-07T03:58:33.726Z,12.10
2022-08-07T04:00:30.761Z,12.10
2022-08-07T04:03:03.830Z,12.00
2022-08-07T04:05:40.259Z,12.00
2022-08-07T04:08:16.008Z,12.10
2022-08-07T04:10:54.427Z,12.10
2022-08-07T04:14:09.319Z,12.10
2022-08-07T04:16:31.299Z,12.00
2022-08-07T04:19:14.713Z,11.90
2022-08-07T04:21:58.721Z,12.00
2022-08-07T04:24:30.653Z,12.00
2022-08-07T04:27:06.054Z,12.10
2022-08-07T04:29:58.162Z,12.00
2022-08-07T04:32:33.876Z,12.00
2022-08-07T04:35:11.262Z,11.90
2022-08-07T04:38:01.072Z,11.80
2022-08-07T04:40:29.741Z,11.90
2022-08-07T04:43:02.170Z,12.00
2022-08-07T04:46:01.033Z,12.00
2022-08-07T04:49:18.292Z,12.10
2022-08-07T04:52:18.454Z,12.30
2022-08-07T04:55:02.329Z,12.30
2022-08-07T04:58:10.153Z,12.40
2022-08-07T05:00:53.686Z,12.40
2022-08-07T05:04:00.334Z,12.60
2022-08-07T05:06:51.194Z,12.60
2022-08-07T05:10:01.701Z,12.70
2022-08-07T05:12:53.689Z,12.80
2022-08-07T05:15:31.334Z,12.90
2022-08-07T05:18:08.809Z,13.10
2022-08-07T05:20:45.987Z,13.30
2022-08-07T05:23:30.986Z,13.50
2022-08-07T05:26:13.625Z,13.70
2022-08-07T05:28:50.302Z,13.80
2022-08-07T05:31:22.135Z,13.90
2022-08-07T05:34:04.462Z,14.00
2022-08-07T05:36:35.602Z,14.20
2022-08-07T05:40:07.074Z,14.20
2022-08-07T05:42:01.714Z,14.40
2022-08-07T05:44:36.433Z,14.50
2022-08-07T05:47:17.999Z,14.60
2022-08-07T05:49:52.492Z,14.50
2022-08-07T05:52:32.284Z,14.70
2022-08-07T05:55:07.244Z,14.80
2022-08-07T05:57:42.243Z,14.70
2022-08-07T06:00:16.347Z,14.90
2022-08-07T06:02:49.963Z,15.00
2022-08-07T06:05:18.233Z,15.10
2022-08-07T06:08:14.173Z,15.20
2022-08-07T06:10:37.425Z,15.20
2022-08-07T06:13:05.124Z,15.20
2022-08-07T06:15:39.091Z,15.40
2022-08-07T06:18:12.453Z,15.40
2022-08-07T06:20:50.404Z,15.40
2022-08-07T06:24:37.528Z,15.50
2022-08-07T06:26:21.520Z,15.50
2022-08-07T06:28:58.915Z,15.90
2022-08-07T06:31:38.846Z,15.90
2022-08-07T06:34:14.708Z,15.90
2022-08-07T06:36:42.043Z,15.90
2022-08-07T06:40:16.544Z,16.00
2022-08-07T06:42:33.192Z,16.20
2022-08-07T06:45:06.328Z,16.30
2022-08-07T06:47:56.918Z,16.40
2022-08-07T06:50:26.403Z,16.60
2022-08-07T06:52:56.522Z,16.50
2022-08-07T06:55:48.282Z,16.70
2022-08-07T06:58:21.591Z,16.70
2022-08-07T07:00:55.219Z,16.90
2022-08-07T07:03:39.895Z,16.70
2022-08-07T07:06:11.109Z,16.90
2022-08-07T07:08:39.984Z,17.10
2022-08-07T07:12:07.484Z,17.20
2022-08-07T07:14:02.906Z,17.40
2022-08-07T07:16:38.921Z,17.50
2022-08-07T07:19:55.612Z,17.70
2022-08-07T07:22:11.417Z,17.60
2022-08-07T07:24:58.407Z,17.50
2022-08-07T07:27:56.240Z,17.80
2022-08-07T07:30:37.931Z,17.70
2022-08-07T07:33:09.056Z,17.90
2022-08-07T07:35:44.061Z,18.20
2022-08-07T07:38:32.475Z,18.20
2022-08-07T07:41:09.838Z,18.20
2022-08-07T07:44:14.445Z,18.40
2022-08-07T07:46:37.854Z,18.70
2022-08-07T07:50:36.254Z,18.60
2022-08-07T07:52:12.874Z,18.70
2022-08-07T07:54:50.484Z,18.90
2022-08-07T07:57:44.042Z,19.10
2022-08-07T08:00:12.223Z,18.90
2022-08-07T08:03:05.170Z,18.90
2022-08-07T08:05:53.635Z,18.80
2022-08-07T08:08:36.971Z,19.10
2022-08-07T08:11:16.478Z,19.30
2022-08-07T08:13:54.228Z,19.50
2022-08-07T08:16:35.179Z,19.80
2022-08-07T08:19:09.726Z,19.70
2022-08-07T08:22:10.566Z,19.90
2022-08-07T08:25:09.365Z,20.10
2022-08-07T08:27:56.785Z,20.20
2022-08-07T08:30:32.121Z,19.90
2022-08-07T08:33:05.391Z,20.20
2022-08-07T08:35:39.081Z,20.00
2022-08-07T08:38:14.842Z,19.80
2022-08-07T08:40:57.895Z,20.00
2022-08-07T08:43:42.974Z,20.10
2022-08-07T08:46:49.154Z,20.20
2022-08-07T08:50:02.653Z,20.40
2022-08-07T08:53:26.303Z,20.30
2022-08-07T08:56:24.611Z,20.60
2022-08-07T08:59:06.640Z,20.60
2022-08-07T09:02:08.922Z,20.50
2022-08-07T09:05:06.285Z,20.50
2022-08-07T09:07:46.608Z,20.80
2022-08-07T09:10:34.359Z,20.30
2022-08-07T09:13:44.115Z,20.40
2022-08-07T09:16:42.687Z,20.80
2022-08-07T09:19:51.133Z,20.90
2022-08-07T09:24:33.073Z,20.80
2022-08-07T09:26:23.371Z,20.90
2022-08-07T09:30:06.114Z,21.10
2022-08-07T09:32:18.737Z,21.10
2022-08-07T09:34:55.253Z,21.20
2022-08-07T09:37:53.489Z,21.30
2022-08-07T09:40:53.936Z,21.40
2022-08-07T09:44:05.705Z,21.20
2022-08-07T09:47:42.381Z,21.30
2022-08-07T09:50:26.397Z,21.70
2022-08-07T09:53:04.749Z,21.40
2022-08-07T09:56:37.624Z,21.30
2022-08-07T10:00:02.162Z,21.20
2022-08-07T10:02:57.118Z,21.30
2022-08-07T10:05:59.623Z,21.40
2022-08-07T10:09:23.659Z,21.60
2022-08-07T10:12:39.606Z,21.70
2022-08-07T10:15:26.276Z,21.90
2022-08-07T10:18:06.217Z,21.40
2022-08-07T10:20:51.445Z,21.70
2022-08-07T10:24:05.046Z,21.80
2022-08-07T10:27:11.248Z,21.60
2022-08-07T10:30:07.082Z,21.20
2022-08-07T10:33:13.110Z,21.00
2022-08-07T10:36:10.957Z,21.10
2022-08-07T10:39:04.400Z,21.10
2022-08-07T10:41:52.224Z,20.80
2022-08-07T10:44:46.036Z,21.10
2022-08-07T10:47:52.869Z,21.60
2022-08-07T10:50:33.086Z,21.50
2022-08-07T10:53:25.008Z,21.80
2022-08-07T10:56:20.798Z,21.70
2022-08-07T10:59:21.594Z,21.40
2022-08-07T11:02:04.693Z,21.40
2022-08-07T11:04:57.869Z,21.70
2022-08-07T11:07:58.951Z,21.90
2022-08-07T11:11:08.322Z,22.20
2022-08-07T11:14:57.271Z,22.20
2022-08-07T11:17:23.528Z,22.50
2022-08-07T11:20:19.321Z,22.80
2022-08-07T11:23:01.498Z,22.60
2022-08-07T11:25:42.446Z,22.60
2022-08-07T11:28:28.761Z,22.80
2022-08-07T11:31:18.632Z,23.00
2022-08-07T11:34:00.380Z,23.00
2022-08-07T11:36:43.272Z,22.90
2022-08-07T11:39:39.858Z,22.90
2022-08-07T11:43:01.875Z,23.20
2022-08-07T11:45:37.778Z,23.00
2022-08-07T11:49:04.163Z,22.90
2022-08-07T11:52:29.005Z,23.30
2022-08-07T11:56:15.519Z,22.70
2022-08-07T11:58:54.698Z,23.10
2022-08-07T12:01:59.258Z,23.30
2022-08-07T12:05:28.792Z,22.80
2022-08-07T12:08:26.099Z,23.20
2022-08-07T12:11:21.895Z,23.50
2022-08-07T12:13:52.220Z,23.60
2022-08-07T12:16:31.633Z,23.90
2022-08-07T12:19:02.169Z,24.00
2022-08-07T12:21:55.825Z,23.90
2022-08-07T12:26:03.250Z,24.20
2022-08-07T12:28:31.029Z,23.90
2022-08-07T12:31:11.533Z,24.10
2022-08-07T12:33:56.495Z,24.20
2022-08-07T12:36:33.069Z,24.10
2022-08-07T12:39:09.217Z,24.00
2022-08-07T12:41:56.046Z,24.00
2022-08-07T12:44:28.481Z,23.90
2022-08-07T12:47:41.524Z,24.10
2022-08-07T12:50:54.856Z,24.00
2022-08-07T12:54:03.134Z,23.90
2022-08-07T12:56:51.028Z,23.80
2022-08-07T12:59:33.016Z,23.60
2022-08-07T13:02:35.084Z,23.80
2022-08-07T13:06:03.572Z,23.90
2022-08-07T13:08:31.784Z,24.10
2022-08-07T13:12:01.989Z,24.30
2022-08-07T13:14:46.835Z,24.10
2022-08-07T13:17:46.720Z,24.30
2022-08-07T13:20:30.784Z,24.40
2022-08-07T13:24:02.146Z,24.50
2022-08-07T13:26:26.480Z,24.30
2022-08-07T13:29:17.096Z,24.30
2022-08-07T13:32:06.379Z,24.50
2022-08-07T13:35:59.547Z,24.60
2022-08-07T13:38:58.958Z,24.70
2022-08-07T13:41:48.298Z,24.70
2022-08-07T13:44:26.183Z,24.60
2022-08-07T13:46:59.792Z,24.50
2022-08-07T13:50:34.580Z,24.50
2022-08-07T13:52:32.413Z,24.60
2022-08-07T13:55:19.808Z,24.40
2022-08-07T13:58:27.506Z,24.50
2022-08-07T14:00:58.509Z,25.10
2022-08-07T14:04:05.355Z,25.20
2022-08-07T14:06:20.663Z,24.70
2022-08-07T14:08:53.587Z,25.00
2022-08-07T14:11:23.692Z,24.60
2022-08-07T14:13:59.437Z,24.40
2022-08-07T14:16:35.987Z,24.80
2022-08-07T14:20:39.203Z,24.60
2022-08-07T14:22:11.639Z,24.60
2022-08-07T14:24:45.584Z,25.10
2022-08-07T14:28:09.314Z,25.00
2022-08-07T14:30:11.614Z,25.00
2022-08-07T14:32:54.581Z,25.10
2022-08-07T14:35:44.710Z,24.90
2022-08-07T14:38:26.047Z,24.90
2022-08-07T14:41:04.059Z,25.10
2022-08-07T14:43:58.428Z,25.40
2022-08-07T14:46:33.553Z,24.90
2022-08-07T14:49:57.551Z,25.10
2022-08-07T14:52:03.160Z,25.20
2022-08-07T14:54:42.093Z,25.20
2022-08-07T15:00:06.970Z,25.70
2022-08-07T15:02:37.409Z,25.20
2022-08-07T15:05:19.614Z,25.10
2022-08-07T15:07:51.879Z,25.10
2022-08-07T15:10:30.116Z,25.20
2022-08-07T15:13:05.597Z,25.30
2022-08-07T15:15:42.844Z,25.60
2022-08-07T15:18:34.848Z,26.10
2022-08-07T15:25:12.710Z,26.70
2022-08-07T15:27:29.031Z,27.20
2022-08-07T15:33:03.794Z,27.60
2022-08-07T15:36:00.802Z,27.20
2022-08-07T15:38:51.966Z,27.40
2022-08-07T15:42:45.066Z,28.10
2022-08-07T15:44:15.245Z,27.50
2022-08-07T15:46:48.573Z,27.60
2022-08-07T15:50:05.634Z,28.30
2022-08-07T15:52:29.762Z,28.00
2022-08-07T15:55:04.680Z,27.20
2022-08-07T15:57:48.021Z,27.10
2022-08-07T16:00:31.680Z,27.00
2022-08-07T16:03:46.637Z,27.20
2022-08-07T16:06:13.945Z,27.10
2022-08-07T16:08:47.346Z,26.80
2022-08-07T16:11:49.138Z,27.60
2022-08-07T16:15:09.921Z,28.40
2022-08-07T16:18:49.774Z,28.50
2022-08-07T16:21:57.162Z,29.30
2022-08-07T16:25:04.774Z,29.20
2022-08-07T16:30:07.581Z,29.60
2022-08-07T16:31:51.108Z,29.50
2022-08-07T16:34:51.016Z,30.10
2022-08-07T16:38:03.448Z,29.60
2022-08-07T16:41:02.675Z,29.20
2022-08-07T16:44:47.419Z,29.10
2022-08-07T16:47:51.341Z,29.40
2022-08-07T16:52:01.737Z,30.40
2022-08-07T16:54:33.181Z,30.40
2022-08-07T16:58:00.594Z,29.40
2022-08-07T17:00:16.367Z,29.40
2022-08-07T17:03:11.272Z,29.90
2022-08-07T17:06:31.478Z,30.30
2022-08-07T17:10:06.887Z,31.30
2022-08-07T17:13:20.101Z,31.80
2022-08-07T17:16:55.922Z,31.30
2022-08-07T17:20:01.605Z,30.90
2022-08-07T17:23:13.082Z,31.20
2022-08-07T17:26:22.501Z,31.60
2022-08-07T17:29:18.368Z,30.60
2022-08-07T17:32:31.144Z,30.10
2022-08-07T17:35:50.302Z,29.40
2022-08-07T17:38:33.996Z,28.80
2022-08-07T17:42:04.347Z,30.50
2022-08-07T17:44:54.539Z,30.90
2022-08-07T17:47:58.038Z,29.30
2022-08-07T17:51:21.394Z,28.90
2022-08-07T17:54:29.596Z,28.20
2022-08-07T17:57:20.439Z,28.10
2022-08-07T18:00:06.550Z,28.70
2022-08-07T18:03:00.816Z,28.30
2022-08-07T18:06:38.507Z,28.20
2022-08-07T18:09:08.490Z,27.50
2022-08-07T18:12:17.987Z,26.50
2022-08-07T18:14:54.720Z,26.40
2022-08-07T18:18:46.372Z,26.10
2022-08-07T18:21:07.142Z,25.70
2022-08-07T18:23:59.615Z,25.10
2022-08-07T18:26:56.790Z,25.10
2022-08-07T18:30:06.396Z,24.90
2022-08-07T18:33:15.850Z,25.00
2022-08-07T18:36:34.276Z,24.50
2022-08-07T18:40:08.819Z,24.10
2022-08-07T18:42:31.488Z,23.90
2022-08-07T18:45:43.908Z,23.90
2022-08-07T18:50:05.574Z,23.50
2022-08-07T18:52:34.592Z,23.50
2022-08-07T18:55:55.847Z,23.40
2022-08-07T18:58:53.436Z,23.20
2022-08-07T19:02:18.004Z,23.20
2022-08-07T19:05:15.974Z,22.90
2022-08-07T19:07:59.618Z,23.00
2022-08-07T19:10:51.221Z,22.70
2022-08-07T19:13:50.030Z,22.50
2022-08-07T19:17:08.063Z,22.60
2022-08-07T19:20:04.456Z,22.30
2022-08-07T19:22:51.273Z,22.30
2022-08-07T19:26:21.866Z,22.30
2022-08-07T19:28:30.060Z,22.10
2022-08-07T19:31:37.101Z,22.00
2022-08-07T19:34:32.507Z,22.10
2022-08-07T19:37:16.915Z,21.90
2022-08-07T19:39:57.926Z,22.00
2022-08-07T19:42:40.482Z,22.00
2022-08-07T19:46:05.358Z,21.70
2022-08-07T19:48:19.032Z,21.90
2022-08-07T19:50:53.499Z,21.60
2022-08-07T19:54:31.282Z,21.60
2022-08-07T19:58:02.865Z,21.30
2022-08-07T19:59:00.740Z,21.40
2022-08-07T20:01:52.361Z,21.30
2022-08-07T20:04:43.037Z,21.10
2022-08-07T20:07:23.401Z,21.00
2022-08-07T20:10:38.042Z,21.10
2022-08-07T20:12:51.277Z,21.00
2022-08-07T20:15:24.475Z,20.90
2022-08-07T20:18:05.861Z,20.70
2022-08-07T20:20:42.870Z,20.70
2022-08-07T20:23:32.743Z,20.70
2022-08-07T20:26:09.988Z,20.60
2022-08-07T20:28:41.359Z,20.50
2022-08-07T20:31:21.027Z,20.50
2022-08-07T20:33:57.388Z,20.50
2022-08-07T20:36:29.650Z,20.40
2022-08-07T20:39:00.534Z,20.20
2022-08-07T20:41:40.683Z,20.20
2022-08-07T20:44:12.505Z,20.10
2022-08-07T20:46:43.175Z,20.00
2022-08-07T20:50:01.087Z,19.90
2022-08-07T20:52:14.290Z,19.80
2022-08-07T20:54:53.690Z,19.70
2022-08-07T20:57:47.646Z,19.70
2022-08-07T21:00:44.083Z,19.50
2022-08-07T21:03:19.197Z,19.50
2022-08-07T21:06:22.322Z,19.50
2022-08-07T21:09:19.922Z,19.50
2022-08-07T21:11:57.181Z,19.50
2022-08-07T21:14:33.480Z,19.30
2022-08-07T21:18:02.149Z,19.30
2022-08-07T21:20:05.340Z,19.20
2022-08-07T21:22:57.367Z,19.00
2022-08-07T21:25:56.423Z,18.90
2022-08-07T21:28:55.068Z,19.00
2022-08-07T21:32:43.950Z,18.80
2022-08-07T21:36:03.956Z,18.90
2022-08-07T21:38:59.445Z,18.80
2022-08-07T21:42:42.507Z,18.80
2022-08-07T21:46:08.813Z,18.70
2022-08-07T21:49:14.637Z,18.70
2022-08-07T21:52:11.471Z,18.50
2022-08-07T21:55:29.940Z,18.50
2022-08-07T21:58:12.271Z,18.30
2022-08-07T22:01:04.802Z,18.40
2022-08-07T22:03:46.589Z,18.40
2022-08-07T22:06:29.902Z,18.30
2022-08-07T22:09:10.407Z,18.30
2022-08-07T22:12:05.812Z,18.30
2022-08-07T22:14:59.878Z,18.20
2022-08-07T22:17:43.616Z,18.20
2022-08-07T22:20:34.604Z,18.20
2022-08-07T22:23:32.530Z,18.10
2022-08-07T22:26:23.151Z,18.20
2022-08-07T22:29:33.781Z,18.10
2022-08-07T22:32:52.162Z,18.00
2022-08-07T22:35:19.294Z,18.00
2022-08-07T22:38:38.640Z,18.10
2022-08-07T22:41:20.126Z,18.00
2022-08-07T22:43:58.648Z,18.00
2022-08-07T22:47:17.115Z,18.00
2022-08-07T22:50:03.952Z,18.00
2022-08-07T22:52:49.466Z,17.80
2022-08-07T22:56:01.905Z,17.80
2022-08-07T22:59:20.111Z,17.80
2022-08-07T23:02:07.694Z,17.90
2022-08-07T23:06:08.455Z,17.70
2022-08-07T23:08:22.275Z,17.70
2022-08-07T23:11:51.776Z,17.80
2022-08-07T23:14:54.062Z,17.70
2022-08-07T23:17:45.530Z,17.70
2022-08-07T23:20:52.583Z,17.70
2022-08-07T23:24:05.782Z,17.70
2022-08-07T23:27:08.719Z,17.50
2022-08-07T23:30:37.935Z,17.50
2022-08-07T23:34:34.908Z,17.50
2022-08-07T23:36:29.001Z,17.50
2022-08-07T23:39:40.897Z,17.40
2022-08-07T23:42:57.251Z,17.40
2022-08-07T23:46:03.501Z,17.20
2022-08-07T23:49:01.960Z,17.30
2022-08-07T23:53:00.257Z,17.30
2022-08-07T23:54:53.018Z,17.20
2022-08-07T23:57:42.802Z,17.20
